Time;durP1;ratioP1;P1;durP2;ratioP2;P2;SDS_P1;SDS_P2;PMS_P1;PMS_P2;Temp;Humidity;BMP_temperature;BMP_pressure;BME280_temperature;BME280_humidity;BME280_pressure;Samples;Min_cycle;Max_cycle;Signal;HPM_P1;HPM_P2
2022/09/26 00:01:41;;;;;;;32.33;15.27;;;;;;;13.34;64.28;100235.58;124819;1099;102778;-76
2022/09/26 00:04:20;;;;;;;33.90;16.03;;;;;;;13.33;64.68;100239.06;124885;1099;104159;-76
2022/09/26 00:06:52;;;;;;;31.30;15.67;;;;;;;13.29;64.98;100236.36;124812;1099;102235;-76
2022/09/26 00:09:25;;;;;;;31.03;15.47;;;;;;;13.26;64.67;100243.30;124791;1099;104166;-76
2022/09/26 00:11:56;;;;;;;27.60;14.40;;;;;;;13.25;64.61;100237.15;124815;1098;104226;-76
2022/09/26 00:14:29;;;;;;;29.20;14.13;;;;;;;13.22;64.94;100239.72;124842;1099;104239;-76
2022/09/26 00:17:00;;;;;;;31.40;14.50;;;;;;;13.21;64.79;100237.93;124901;1099;103604;-76
2022/09/26 00:19:31;;;;;;;32.57;15.27;;;;;;;13.23;64.85;100230.05;124876;1098;104284;-76
2022/09/26 00:22:02;;;;;;;29.37;14.20;;;;;;;13.21;65.07;100227.39;124847;1099;101995;-76
2022/09/26 00:24:34;;;;;;;29.37;14.23;;;;;;;13.21;64.96;100223.87;124857;1099;102163;-76
2022/09/26 00:27:05;;;;;;;30.27;14.10;;;;;;;13.20;65.26;100228.27;124884;1099;104172;-76
2022/09/26 00:29:36;;;;;;;32.40;15.33;;;;;;;13.18;65.42;100222.06;124816;1099;102102;-76
2022/09/26 00:32:07;;;;;;;31.03;13.73;;;;;;;13.18;64.78;100221.18;124816;1096;104156;-76
2022/09/26 00:34:39;;;;;;;27.33;12.67;;;;;;;13.16;65.23;100213.24;124862;1099;102830;-76
2022/09/26 00:37:10;;;;;;;28.20;13.63;;;;;;;13.14;65.14;100217.60;124837;1099;102289;-76
2022/09/26 00:39:42;;;;;;;29.33;13.83;;;;;;;13.12;65.18;100221.96;124849;1099;104248;-76
2022/09/26 00:42:15;;;;;;;30.97;14.57;;;;;;;13.10;65.53;100216.66;124855;1099;103027;-76
2022/09/26 00:44:53;;;;;;;27.93;13.58;;;;;;;13.11;65.26;100217.54;124878;1099;104163;-76
2022/09/26 00:47:36;;;;;;;29.50;14.27;;;;;;;13.10;65.28;100215.75;124851;1099;104169;-76
2022/09/26 00:50:16;;;;;;;31.65;14.23;;;;;;;13.12;65.72;100209.67;124841;1099;102784;-76
2022/09/26 00:52:52;;;;;;;32.57;14.10;;;;;;;13.13;65.28;100206.19;124816;1099;102988;-76
2022/09/26 00:55:29;;;;;;;28.57;13.90;;;;;;;13.13;65.39;100202.64;124859;1099;104274;-76
2022/09/26 00:58:04;;;;;;;27.27;13.73;;;;;;;13.11;65.68;100205.25;124833;1099;104261;-76
2022/09/26 01:00:35;;;;;;;27.73;13.50;;;;;;;13.08;65.46;100206.94;124804;1099;104185;-76
2022/09/26 01:03:10;;;;;;;31.73;13.43;;;;;;;13.02;65.78;100202.42;124772;1099;104261;-76
2022/09/26 01:05:41;;;;;;;29.03;13.23;;;;;;;12.95;65.52;100204.05;124785;1099;104700;-76
2022/09/26 01:08:14;;;;;;;29.60;13.83;;;;;;;12.93;65.60;100194.32;124835;1099;104159;-76
2022/09/26 01:10:45;;;;;;;27.27;13.27;;;;;;;12.91;65.70;100203.94;124858;1099;104159;-76
2022/09/26 01:13:17;;;;;;;26.93;12.93;;;;;;;12.90;65.80;100192.53;124885;1099;104195;-76
2022/09/26 01:15:48;;;;;;;28.85;13.40;;;;;;;12.89;66.12;100197.77;124800;1098;104172;-76
2022/09/26 01:18:20;;;;;;;25.97;13.37;;;;;;;12.88;66.15;100190.71;124863;1099;104319;-76
2022/09/26 01:21:00;;;;;;;26.83;14.03;;;;;;;12.86;65.81;100195.95;124711;1099;104232;-76
2022/09/26 01:23:56;;;;;;;32.60;14.43;;;;;;;12.84;65.90;100186.22;124677;1099;104191;-75
2022/09/26 01:27:06;;;;;;;25.83;13.33;;;;;;;12.82;66.22;100183.55;124675;1099;102839;-76
2022/09/26 01:30:09;;;;;;;31.30;15.13;;;;;;;12.80;66.27;100189.67;124767;1099;104156;-76
2022/09/26 01:33:08;;;;;;;28.07;14.20;;;;;;;12.79;66.24;100188.76;124945;1099;101816;-76
2022/09/26 01:35:57;;;;;;;27.67;13.47;;;;;;;12.79;66.38;100187.88;124853;1099;102305;-76
2022/09/26 01:38:42;;;;;;;25.10;12.50;;;;;;;12.78;66.46;100181.73;124979;1099;102681;-76
2022/09/26 01:41:31;;;;;;;27.13;12.80;;;;;;;12.80;66.84;100181.77;124973;1099;104244;-76
2022/09/26 01:44:14;;;;;;;24.00;11.60;;;;;;;12.79;66.76;100172.95;124891;1098;104618;-77
2022/09/26 01:46:51;;;;;;;25.60;12.93;;;;;;;12.78;66.54;100176.47;124925;1099;104204;-76
2022/09/26 01:49:27;;;;;;;25.20;11.67;;;;;;;12.77;66.66;100170.30;124916;1099;104318;-76
2022/09/26 01:52:06;;;;;;;22.95;11.50;;;;;;;12.75;66.85;100176.41;124879;1098;104335;-76
2022/09/26 01:54:42;;;;;;;28.40;12.20;;;;;;;12.74;67.01;100174.61;124845;1099;101914;-77
2022/09/26 01:57:18;;;;;;;25.07;12.33;;;;;;;12.71;67.13;100174.55;124933;1099;104169;-76
2022/09/26 01:59:53;;;;;;;24.73;12.20;;;;;;;12.67;67.10;100172.69;124802;1099;104197;-76
2022/09/26 02:02:29;;;;;;;24.60;12.13;;;;;;;12.64;67.09;100165.64;124818;1099;103071;-76
2022/09/26 02:05:05;;;;;;;29.03;12.53;;;;;;;12.60;67.20;100171.67;124812;1099;101906;-76
2022/09/26 02:07:40;;;;;;;23.30;11.97;;;;;;;12.57;67.58;100171.61;124892;1099;104185;-76
2022/09/26 02:10:19;;;;;;;26.10;10.90;;;;;;;12.53;67.54;100160.13;124830;1099;104306;-76
2022/09/26 02:12:57;;;;;;;23.00;11.60;;;;;;;12.52;67.36;100157.47;124856;1099;102791;-76
2022/09/26 02:15:31;;;;;;;25.90;12.10;;;;;;;12.48;67.58;100167.05;124837;1099;104226;-76
2022/09/26 02:18:12;;;;;;;25.00;11.57;;;;;;;12.47;67.86;100154.73;124755;1099;104233;-76
2022/09/26 02:20:48;;;;;;;25.80;12.73;;;;;;;12.44;67.57;100159.05;124792;1099;104230;-76
2022/09/26 02:23:20;;;;;;;24.90;11.90;;;;;;;12.42;67.68;100145.86;124690;1099;104612;-76
2022/09/26 02:25:51;;;;;;;26.03;11.83;;;;;;;12.37;67.90;100142.20;124679;1099;104226;-76
2022/09/26 02:28:22;;;;;;;27.43;12.70;;;;;;;12.33;67.88;100145.65;124796;1098;104226;-75
2022/09/26 02:30:54;;;;;;;28.03;12.53;;;;;;;12.31;67.92;100148.24;124849;1099;104310;-75
2022/09/26 02:33:26;;;;;;;48.00;16.00;;;;;;;12.27;67.65;100143.75;124816;1096;104160;-76
2022/09/26 02:35:58;;;;;;;57.00;17.77;;;;;;;12.27;68.01;100140.24;124782;1099;104355;-76
2022/09/26 02:38:33;;;;;;;34.50;14.50;;;;;;;12.27;68.07;100140.24;124813;1099;104153;-76
2022/09/26 02:41:40;;;;;;;39.63;14.93;;;;;;;12.22;68.29;100141.02;124745;1099;102851;-76
2022/09/26 02:44:28;;;;;;;36.33;14.17;;;;;;;12.22;68.18;100140.14;124934;1099;108008;-77
2022/09/26 02:47:21;;;;;;;42.47;15.50;;;;;;;12.20;68.24;100137.47;124911;1099;104325;-76
2022/09/26 02:50:07;;;;;;;38.27;15.10;;;;;;;12.19;68.12;100125.16;124920;1099;103598;-76
2022/09/26 02:52:50;;;;;;;159.93;34.03;;;;;;;12.18;68.49;100126.00;125020;1098;104220;-76
2022/09/26 02:55:36;;;;;;;42.17;15.63;;;;;;;12.16;68.48;100127.72;124945;1099;104296;-76
2022/09/26 02:58:16;;;;;;;32.23;13.90;;;;;;;12.16;68.51;100124.21;124823;1099;103270;-76
2022/09/26 03:00:59;;;;;;;34.63;13.43;;;;;;;12.14;68.58;100120.63;124885;1099;104188;-76
2022/09/26 03:03:38;;;;;;;31.27;13.60;;;;;;;12.13;68.75;100116.25;124847;1099;104188;-76
2022/09/26 03:06:14;;;;;;;39.77;14.43;;;;;;;12.09;68.81;100110.04;124735;1099;104194;-76
2022/09/26 03:08:49;;;;;;;34.53;13.87;;;;;;;12.09;68.80;100107.41;124631;1099;104159;-75
2022/09/26 03:11:24;;;;;;;49.43;15.90;;;;;;;12.08;68.73;100107.38;124679;1099;104201;-75
2022/09/26 03:13:58;;;;;;;48.80;17.23;;;;;;;12.08;69.01;100105.63;124651;1099;104258;-76
2022/09/26 03:16:35;;;;;;;42.20;14.95;;;;;;;12.06;68.80;100107.34;124814;1099;104159;-75
2022/09/26 03:19:10;;;;;;;45.90;15.90;;;;;;;12.02;68.89;100106.35;124718;1099;102858;-76
2022/09/26 03:21:43;;;;;;;42.17;16.30;;;;;;;11.99;69.10;100108.03;124846;1099;104290;-76
2022/09/26 03:24:16;;;;;;;58.60;16.57;;;;;;;11.99;68.82;100105.41;124829;1099;104169;-76
2022/09/26 03:26:49;;;;;;;53.07;16.53;;;;;;;11.99;69.21;100100.14;124746;1099;104204;-75
2022/09/26 03:29:21;;;;;;;37.70;14.40;;;;;;;11.98;69.35;100100.98;124649;1099;104227;-75
2022/09/26 03:31:53;;;;;;;34.37;14.00;;;;;;;11.97;69.19;100096.59;124832;1099;104188;-76
2022/09/26 03:34:24;;;;;;;35.47;14.73;;;;;;;11.98;69.29;100106.24;124765;1099;103045;-75
2022/09/26 03:36:56;;;;;;;39.63;13.80;;;;;;;11.98;69.45;100099.27;124790;1099;104185;-76
2022/09/26 03:39:27;;;;;;;30.97;12.63;;;;;;;11.98;69.58;100098.36;124852;1099;102187;-75
2022/09/26 03:42:09;;;;;;;30.27;13.20;;;;;;;12.00;69.67;100107.19;124752;1099;104328;-75
2022/09/26 03:44:42;;;;;;;32.90;14.20;;;;;;;11.98;69.61;100098.36;124842;1099;104331;-75
2022/09/26 03:47:18;;;;;;;30.70;12.67;;;;;;;11.96;69.48;100090.43;124865;1099;103705;-75
2022/09/26 03:49:52;;;;;;;31.03;12.53;;;;;;;11.93;69.51;100082.47;124797;1099;104249;-76
2022/09/26 03:52:24;;;;;;;28.20;12.43;;;;;;;11.90;69.38;100081.48;124886;1099;104157;-75
2022/09/26 03:54:55;;;;;;;24.63;12.20;;;;;;;11.86;69.60;100083.16;124764;1099;104201;-74
2022/09/26 03:57:26;;;;;;;30.30;12.60;;;;;;;11.82;69.89;100073.42;124842;1099;104175;-75
2022/09/26 04:00:06;;;;;;;24.07;11.83;;;;;;;11.78;69.90;100069.84;124681;1099;104294;-74
2022/09/26 04:02:47;;;;;;;24.15;11.15;;;;;;;11.76;69.77;100068.89;124785;1099;104152;-75
2022/09/26 04:05:28;;;;;;;23.33;11.57;;;;;;;11.77;70.00;100075.06;124813;1096;102839;-75
2022/09/26 04:08:01;;;;;;;24.37;11.47;;;;;;;11.77;69.86;100062.79;124792;1099;104225;-75
2022/09/26 04:10:33;;;;;;;26.60;11.20;;;;;;;11.80;69.82;100062.87;124778;1099;104278;-75
2022/09/26 04:13:04;;;;;;;22.73;10.27;;;;;;;11.83;69.85;100062.94;124428;1099;104156;-75
2022/09/26 04:15:36;;;;;;;27.00;12.03;;;;;;;11.85;69.92;100061.22;124733;1099;104045;-75
2022/09/26 04:18:10;;;;;;;29.20;12.07;;;;;;;11.89;69.97;100054.32;124884;1098;104262;-75
2022/09/26 04:20:41;;;;;;;23.80;10.67;;;;;;;11.91;69.99;100055.23;124848;1099;104201;-75
2022/09/26 04:23:16;;;;;;;28.53;11.00;;;;;;;11.93;69.76;100056.18;124918;1098;104204;-75
2022/09/26 04:25:47;;;;;;;32.30;11.47;;;;;;;11.93;70.02;100066.70;124805;1099;104334;-75
2022/09/26 04:28:18;;;;;;;25.80;11.07;;;;;;;11.92;70.04;100069.25;124789;1099;104210;-75
2022/09/26 04:30:50;;;;;;;24.20;11.27;;;;;;;11.93;70.21;100081.59;124828;1099;104332;-75
2022/09/26 04:33:23;;;;;;;23.03;11.20;;;;;;;11.93;70.12;100087.73;124809;1099;102810;-75
2022/09/26 04:36:10;;;;;;;24.07;10.73;;;;;;;11.97;70.55;100100.11;124829;1099;104235;-74
2022/09/26 04:38:41;;;;;;;26.33;10.90;;;;;;;11.94;70.35;100096.53;124848;1099;104166;-75
2022/09/26 04:41:16;;;;;;;30.17;11.87;;;;;;;11.92;70.33;100096.49;124810;1099;104209;-75
2022/09/26 04:43:48;;;;;;;26.45;11.73;;;;;;;11.88;70.47;100111.25;124826;1099;104262;-75
2022/09/26 04:46:22;;;;;;;28.63;12.63;;;;;;;11.87;70.50;100100.70;124823;1099;104175;-75
2022/09/26 04:48:55;;;;;;;27.90;12.23;;;;;;;11.87;70.71;100093.72;124880;1099;104258;-75
2022/09/26 04:51:28;;;;;;;35.07;13.70;;;;;;;11.90;70.56;100092.00;124899;1099;104400;-76
2022/09/26 04:54:00;;;;;;;28.53;12.20;;;;;;;11.92;70.55;100085.98;124697;1099;104175;-75
2022/09/26 04:56:32;;;;;;;27.67;12.90;;;;;;;11.93;70.78;100092.98;124676;1099;102239;-74
2022/09/26 04:59:04;;;;;;;27.13;12.73;;;;;;;11.95;70.66;100104.45;124675;1099;104233;-75
2022/09/26 05:02:02;;;;;;;30.83;12.93;;;;;;;11.96;70.61;100102.70;124746;1099;104183;-75
2022/09/26 05:04:39;;;;;;;29.47;14.23;;;;;;;11.98;70.89;100103.61;124650;1099;104193;-75
2022/09/26 05:07:11;;;;;;;30.53;12.43;;;;;;;12.01;70.45;100094.08;124654;1099;104367;-75
2022/09/26 05:09:43;;;;;;;32.17;14.47;;;;;;;12.05;70.45;100088.02;124734;1098;104150;-75
2022/09/26 05:12:17;;;;;;;32.97;15.00;;;;;;;12.12;70.78;100086.41;124672;1099;103338;-75
2022/09/26 05:14:52;;;;;;;45.77;14.33;;;;;;;12.18;70.92;100089.17;124707;1098;102754;-75
2022/09/26 05:17:25;;;;;;;29.23;13.67;;;;;;;12.25;71.03;100086.69;124675;1099;104334;-75
2022/09/26 05:19:59;;;;;;;28.33;14.47;;;;;;;12.31;70.95;100084.19;124617;1099;104254;-75
2022/09/26 05:22:46;;;;;;;33.53;14.67;;;;;;;12.36;71.02;100087.84;124715;1099;104162;-74
2022/09/26 05:28:10;;;;;;;;;;;;;;;12.47;71.08;100094.20;124539;1099;104181;-74
2022/09/26 05:30:42;;;;;;;30.00;14.03;;;;;;;12.54;71.31;100093.50;124701;1099;104213;-75
2022/09/26 05:33:14;;;;;;;27.50;14.27;;;;;;;12.62;71.05;100091.02;124583;1098;102966;-76
2022/09/26 05:35:49;;;;;;;30.00;13.63;;;;;;;12.71;71.02;100091.19;124701;1099;104175;-75
2022/09/26 05:38:21;;;;;;;31.40;14.73;;;;;;;12.82;71.24;100093.16;124692;1098;104232;-75
2022/09/26 05:40:58;;;;;;;32.33;14.27;;;;;;;12.91;71.35;100088.95;124316;1099;104213;-75
2022/09/26 05:43:33;;;;;;;29.47;13.83;;;;;;;13.00;71.38;100072.45;124699;1099;102235;-75
2022/09/26 05:46:08;;;;;;;26.33;13.57;;;;;;;13.08;71.12;100067.33;124256;1099;102938;-75
2022/09/26 05:48:43;;;;;;;33.27;13.63;;;;;;;13.15;71.26;100060.42;124753;1099;102257;-74
2022/09/26 05:51:22;;;;;;;28.60;13.07;;;;;;;13.22;71.05;100068.47;124684;1099;104293;-74
2022/09/26 05:53:53;;;;;;;33.48;14.98;;;;;;;13.27;71.24;100069.42;124658;1099;102292;-75
2022/09/26 05:56:26;;;;;;;29.40;14.10;;;;;;;13.34;71.10;100086.28;124605;1099;103617;-75
2022/09/26 05:59:18;;;;;;;26.37;13.23;;;;;;;13.41;71.48;100079.36;124511;1099;104414;-74
2022/09/26 06:02:25;;;;;;;27.63;13.87;;;;;;;13.49;70.99;100069.83;124218;1102;104386;-75
2022/09/26 06:05:09;;;;;;;27.97;14.10;;;;;;;13.54;71.10;100054.09;124590;1099;102746;-75
2022/09/26 06:07:43;;;;;;;26.05;13.45;;;;;;;13.59;70.77;100053.32;124658;1099;104264;-74
2022/09/26 06:10:22;;;;;;;28.33;14.13;;;;;;;13.67;70.86;100048.17;124659;1099;104251;-74
2022/09/26 06:13:01;;;;;;;32.43;14.63;;;;;;;13.73;70.88;100045.63;124253;1099;104321;-75
2022/09/26 06:15:35;;;;;;;29.20;14.30;;;;;;;13.78;71.62;100037.80;124237;1099;103580;-75
2022/09/26 06:18:07;;;;;;;30.10;12.97;;;;;;;13.82;70.93;100036.95;124600;1099;104303;-74
2022/09/26 06:20:39;;;;;;;32.20;13.97;;;;;;;13.87;71.15;100031.75;124693;1099;104204;-75
2022/09/26 06:23:10;;;;;;;31.47;14.07;;;;;;;13.92;70.82;100030.09;124754;1099;104317;-75
2022/09/26 06:25:43;;;;;;;30.10;13.97;;;;;;;13.93;70.98;100029.20;124703;1098;104236;-75
2022/09/26 06:28:18;;;;;;;31.52;13.58;;;;;;;14.00;71.31;100036.35;124749;1099;104236;-74
2022/09/26 06:30:50;;;;;;;28.02;14.38;;;;;;;14.03;70.62;100039.91;124702;1099;104318;-74
2022/09/26 06:33:52;;;;;;;34.87;15.57;;;;;;;14.13;71.82;100038.31;124653;1099;104271;-74
2022/09/26 06:36:38;;;;;;;31.33;15.50;;;;;;;14.24;70.81;100033.16;124659;1098;104209;-75
2022/09/26 06:39:10;;;;;;;31.02;13.88;;;;;;;14.33;71.62;100025.36;124670;1098;104194;-75
2022/09/26 06:41:42;;;;;;;36.40;14.60;;;;;;;14.42;70.88;100016.67;124668;1099;104398;-75
2022/09/26 06:44:53;;;;;;;28.67;14.83;;;;;;;14.48;70.59;100003.55;124639;1099;104230;-76
2022/09/26 06:47:40;;;;;;;28.33;14.23;;;;;;;14.53;71.31;100012.41;124711;1099;102328;-75
2022/09/26 06:50:44;;;;;;;30.33;13.03;;;;;;;14.58;70.57;100011.58;125932;1099;102990;-76
2022/09/26 06:53:31;;;;;;;33.57;13.87;;;;;;;14.59;70.45;100019.52;125161;1099;104140;-75
2022/09/26 06:56:09;;;;;;;24.83;13.03;;;;;;;14.57;71.25;100021.27;124874;1098;104169;-75
2022/09/26 06:58:59;;;;;;;32.97;13.67;;;;;;;14.59;71.22;100021.28;124909;1099;104303;-75
2022/09/26 07:01:38;;;;;;;39.73;13.93;;;;;;;14.58;71.12;100023.02;124908;1099;104220;-76
2022/09/26 07:04:17;;;;;;;28.03;13.40;;;;;;;14.60;70.51;100034.55;124862;1099;103639;-76
2022/09/26 07:07:01;;;;;;;33.75;14.03;;;;;;;14.62;71.32;100035.44;124824;1099;102785;-75
2022/09/26 07:09:33;;;;;;;28.45;13.35;;;;;;;14.67;71.15;100039.00;124839;1099;103269;-75
2022/09/26 07:12:19;;;;;;;29.20;13.17;;;;;;;14.78;70.85;100052.33;124871;1099;102801;-75
2022/09/26 07:15:03;;;;;;;48.67;19.27;;;;;;;14.95;70.25;100041.95;124937;1098;104233;-75
2022/09/26 07:18:01;;;;;;;84.53;52.63;;;;;;;15.19;71.30;100048.36;124843;1099;104162;-75
2022/09/26 07:20:46;;;;;;;37.40;17.77;;;;;;;15.43;70.61;100051.22;124819;1099;104221;-78
2022/09/26 07:23:36;;;;;;;21.27;10.10;;;;;;;15.60;70.56;100053.14;124845;1099;104047;-76
2022/09/26 07:26:14;;;;;;;16.67;8.30;;;;;;;15.69;70.18;100053.21;124760;1099;104175;-76
2022/09/26 07:28:52;;;;;;;16.77;8.07;;;;;;;15.79;69.92;100047.13;124902;1099;104156;-77
2022/09/26 07:31:26;;;;;;;14.50;7.60;;;;;;;15.88;69.82;100042.77;125660;1099;102162;-77
2022/09/26 07:34:28;;;;;;;15.33;7.90;;;;;;;16.07;69.50;100047.31;124481;1100;102902;-77
2022/09/26 07:37:06;;;;;;;16.37;7.40;;;;;;;16.23;69.47;100044.77;124863;1099;104213;-77
2022/09/26 07:39:38;;;;;;;14.00;7.30;;;;;;;16.38;69.62;100049.23;125622;1099;104229;-76
2022/09/26 07:42:13;;;;;;;19.00;7.40;;;;;;;16.51;69.29;100043.13;124863;1099;104235;-77
2022/09/26 07:44:46;;;;;;;17.17;7.37;;;;;;;16.65;69.38;100027.28;124945;1099;104255;-77
2022/09/26 07:50:38;;;;;;;14.53;7.60;;;;;;;16.97;69.50;100022.11;124916;1099;104069;-77
2022/09/26 07:53:35;;;;;;;17.30;7.20;;;;;;;17.09;68.55;100013.27;124866;1099;104332;-75
2022/09/26 07:56:33;;;;;;;13.97;6.63;;;;;;;17.24;68.23;100009.77;124820;1099;104166;-77
2022/09/26 07:59:34;;;;;;;16.30;6.97;;;;;;;17.38;68.55;100012.43;124747;1099;104153;-76
2022/09/26 08:02:34;;;;;;;15.20;6.83;;;;;;;17.53;68.47;100000.91;124936;1099;102445;-76
2022/09/26 08:05:11;;;;;;;16.33;7.20;;;;;;;17.65;68.04;99995.59;124974;1099;104156;-76
2022/09/26 08:07:45;;;;;;;17.20;7.13;;;;;;;17.78;68.00;99991.17;124799;1099;102376;-75
2022/09/26 08:10:33;;;;;;;13.27;6.70;;;;;;;17.93;67.14;99988.48;124703;1099;102785;-75
2022/09/26 08:13:24;;;;;;;17.02;7.40;;;;;;;18.01;67.05;99982.29;124714;1098;102732;-74
2022/09/26 08:16:19;;;;;;;17.40;7.20;;;;;;;18.06;66.56;99985.80;124795;1099;102365;-75
2022/09/26 08:18:52;;;;;;;15.27;7.07;;;;;;;18.18;66.59;99985.77;124806;1099;104095;-76
2022/09/26 08:21:25;;;;;;;17.60;7.07;;;;;;;18.30;66.45;99991.03;124398;1099;113092;-75
2022/09/26 08:24:01;;;;;;;18.20;7.23;;;;;;;18.44;66.20;99985.66;124936;1099;102855;-74
2022/09/26 08:26:39;;;;;;;19.17;7.00;;;;;;;18.54;66.16;99983.83;124776;1099;104540;-74
2022/09/26 08:29:31;;;;;;;16.97;6.80;;;;;;;18.63;65.34;99983.78;124889;1099;102786;-76
2022/09/26 08:32:06;;;;;;;17.93;7.50;;;;;;;18.76;65.55;99986.37;124879;1099;104232;-75
2022/09/26 08:34:41;;;;;;;17.30;6.63;;;;;;;18.84;65.41;99973.94;124835;1099;104654;-74
2022/09/26 08:37:33;;;;;;;18.12;6.70;;;;;;;18.95;64.46;99977.44;124862;1099;102743;-74
2022/09/26 08:40:33;;;;;;;16.37;6.43;;;;;;;19.03;64.58;99980.91;124607;1099;104337;-76
2022/09/26 08:43:41;;;;;;;11.00;6.20;;;;;;;19.14;64.25;99971.98;124619;1099;104418;-75
2022/09/26 08:46:49;;;;;;;13.03;5.60;;;;;;;19.22;63.27;99975.45;124962;1099;102878;-76
2022/09/26 08:50:02;;;;;;;15.73;5.97;;;;;;;19.32;63.17;99971.84;124878;1099;104179;-76
2022/09/26 08:52:39;;;;;;;11.90;5.73;;;;;;;19.44;62.61;99972.62;124949;1099;104166;-76
2022/09/26 08:55:16;;;;;;;13.03;5.67;;;;;;;19.55;62.44;99965.41;125364;1099;102870;-77
2022/09/26 08:57:50;;;;;;;13.87;5.73;;;;;;;19.68;62.95;99966.16;124756;1097;104236;-75
2022/09/26 09:00:24;;;;;;;12.87;5.90;;;;;;;19.79;62.37;99958.09;124695;1099;104251;-76
2022/09/26 09:03:17;;;;;;;9.90;4.90;;;;;;;19.92;61.73;99954.41;124679;1099;104232;-75
2022/09/26 09:05:53;;;;;;;10.00;4.97;;;;;;;20.00;60.58;99957.86;124775;1097;104169;-75
2022/09/26 09:08:30;;;;;;;11.67;4.70;;;;;;;20.10;60.65;99951.54;124676;1099;104150;-76
2022/09/26 09:11:57;;;;;;;12.67;4.97;;;;;;;20.22;60.33;99942.50;124556;1102;104051;-76
2022/09/26 09:14:51;;;;;;;14.80;5.33;;;;;;;20.37;60.37;99928.11;124339;1099;104220;-76
2022/09/26 09:17:41;;;;;;;8.77;5.03;;;;;;;20.48;59.40;99928.83;124324;1099;102646;-76
2022/09/26 09:20:45;;;;;;;19.63;5.50;;;;;;;20.60;59.35;99927.78;124655;1099;102870;-76
2022/09/26 09:23:58;;;;;;;11.00;4.90;;;;;;;20.66;58.43;99926.83;124186;1102;119339;-76
2022/09/26 09:26:34;;;;;;;;;;;;;;;20.68;57.28;99914.38;124706;1099;102314;-76
2022/09/26 09:29:21;;;;;;;7.27;4.77;;;;;;;20.71;58.03;99913.43;124701;1099;104269;-76
2022/09/26 09:32:19;;;;;;;16.47;4.73;;;;;;;20.78;57.92;99923.98;124526;1099;104274;-76
2022/09/26 09:35:23;;;;;;;12.57;4.57;;;;;;;20.89;57.39;99922.94;124731;1099;104166;-76
2022/09/26 09:38:12;;;;;;;11.00;5.07;;;;;;;20.99;56.80;99924.57;124769;1099;104245;-76
2022/09/26 09:41:04;;;;;;;7.10;4.40;;;;;;;21.06;56.69;99915.54;125516;1099;104374;-76
2022/09/26 09:43:47;;;;;;;9.17;4.60;;;;;;;21.19;56.37;99924.20;125688;1099;102814;-78
2022/09/26 09:46:28;;;;;;;8.48;4.70;;;;;;;21.24;56.19;99911.69;124791;1099;104261;-76
2022/09/26 09:49:15;;;;;;;8.03;4.80;;;;;;;21.32;56.22;99915.09;124797;1099;104156;-78
2022/09/26 09:52:09;;;;;;;8.43;4.60;;;;;;;21.36;55.47;99918.58;124359;1099;102222;-75
2022/09/26 09:55:01;;;;;;;7.83;3.93;;;;;;;21.44;55.23;99899.76;126024;1098;107720;-77
2022/09/26 09:58:28;;;;;;;7.47;4.07;;;;;;;21.49;54.71;99898.81;125144;1099;104329;-77
2022/09/26 10:01:12;;;;;;;8.90;3.93;;;;;;;21.56;54.37;99896.02;125041;1102;104201;-77
2022/09/26 10:04:00;;;;;;;5.50;3.60;;;;;;;21.64;53.55;99892.28;125241;1099;102772;-77
2022/09/26 10:06:34;;;;;;;6.83;3.90;;;;;;;21.71;53.35;99888.59;125426;1099;104235;-76
2022/09/26 10:09:19;;;;;;;8.30;3.60;;;;;;;21.77;52.85;99886.70;125457;1099;104166;-75
2022/09/26 10:12:16;;;;;;;6.47;3.50;;;;;;;21.87;52.87;99885.61;124758;1099;104170;-75
2022/09/26 10:15:19;;;;;;;7.57;3.67;;;;;;;22.01;52.58;99870.17;124831;1099;104187;-75
2022/09/26 10:18:16;;;;;;;7.75;3.40;;;;;;;22.13;52.51;99863.70;124854;1099;102165;-75
2022/09/26 10:20:57;;;;;;;8.63;4.20;;;;;;;22.23;51.80;99870.58;124783;1099;104243;-74
2022/09/26 10:23:34;;;;;;;10.87;4.30;;;;;;;22.35;51.51;99872.14;124797;1099;104239;-76
2022/09/26 10:26:09;;;;;;;8.17;3.53;;;;;;;22.43;51.30;99871.96;124761;1099;104226;-75
2022/09/26 10:28:51;;;;;;;7.10;3.43;;;;;;;22.49;50.94;99868.28;124437;1099;104212;-75
2022/09/26 10:31:28;;;;;;;9.93;3.30;;;;;;;22.58;50.46;99876.09;124802;1099;104281;-75
2022/09/26 10:34:35;;;;;;;8.70;3.47;;;;;;;22.61;49.53;99863.52;124583;1099;102259;-76
2022/09/26 10:37:20;;;;;;;;;;;;;;;22.66;48.24;99857.16;124815;1098;102988;-76
2022/09/26 10:42:47;;;;;;;5.47;3.42;;;;;;;22.73;48.81;99854.30;124809;1099;104216;-77
2022/09/26 10:45:28;;;;;;;7.58;3.50;;;;;;;22.79;49.25;99842.58;124718;1099;102308;-76
2022/09/26 10:48:20;;;;;;;6.67;3.50;;;;;;;22.85;48.71;99831.73;124745;1099;104235;-76
2022/09/26 10:51:15;;;;;;;7.10;3.53;;;;;;;22.91;48.60;99818.20;125628;1098;104238;-76
2022/09/26 10:54:04;;;;;;;9.40;3.70;;;;;;;22.96;48.21;99818.94;124651;1098;104367;-77
2022/09/26 10:56:42;;;;;;;8.07;3.20;;;;;;;23.06;48.47;99813.35;125604;1099;102061;-76
2022/09/26 10:59:18;;;;;;;6.63;3.27;;;;;;;23.11;47.54;99814.16;124860;1099;104278;-77
2022/09/26 11:01:55;;;;;;;4.93;3.50;;;;;;;23.13;47.46;99826.56;124482;1099;104319;-78
2022/09/26 11:08:23;;;;;;;6.23;3.40;;;;;;;23.10;45.44;99820.42;125546;1099;104225;-76
2022/09/26 11:11:20;;;;;;;8.53;3.40;;;;;;;23.11;45.93;99814.16;125635;1099;104306;-77
2022/09/26 11:14:08;;;;;;;6.70;3.40;;;;;;;23.07;43.88;99810.63;125526;1099;104168;-77
2022/09/26 11:16:55;;;;;;;5.80;3.53;;;;;;;23.09;45.04;99799.92;125577;1099;117828;-77
2022/09/26 11:19:47;;;;;;;3.83;3.20;;;;;;;23.10;45.02;99805.23;125140;1099;102047;-78
2022/09/26 11:22:25;;;;;;;4.93;3.23;;;;;;;23.14;44.67;99798.89;125164;1099;104150;-77
2022/09/26 11:25:12;;;;;;;6.75;3.30;;;;;;;23.19;44.24;99788.06;125687;1099;104252;-77
2022/09/26 11:28:08;;;;;;;7.90;3.50;;;;;;;23.25;44.49;99793.25;125766;1099;104169;-78
2022/09/26 11:31:28;;;;;;;7.13;3.50;;;;;;;23.29;44.61;99789.55;125645;1098;104265;-78
2022/09/26 11:34:35;;;;;;;10.33;3.63;;;;;;;23.34;44.22;99781.38;125439;1099;104226;-79
2022/09/26 11:37:44;;;;;;;5.17;3.30;;;;;;;23.39;43.86;99781.25;125590;1098;104191;-77
2022/09/26 11:40:42;;;;;;;7.57;3.60;;;;;;;23.42;44.03;99775.81;125474;1099;102261;-77
2022/09/26 11:43:58;;;;;;;6.50;3.30;;;;;;;23.44;43.03;99771.31;125640;1099;104179;-77
2022/09/26 11:47:35;;;;;;;6.97;3.30;;;;;;;23.47;43.27;99766.73;125356;1099;104444;-78
2022/09/26 11:50:35;;;;;;;4.43;3.00;;;;;;;23.48;42.11;99776.54;125467;1099;104240;-78
2022/09/26 11:53:40;;;;;;;6.50;3.13;;;;;;;23.46;42.60;99772.14;125630;1099;102823;-76
2022/09/26 11:56:28;;;;;;;6.10;3.40;;;;;;;23.45;42.39;99763.23;125221;1099;104064;-78
2022/09/26 11:59:15;;;;;;;5.43;3.43;;;;;;;23.45;42.00;99765.02;124833;1099;102737;-78
2022/09/26 12:02:07;;;;;;;3.87;3.03;;;;;;;23.44;41.78;99760.61;125059;1099;102011;-78
2022/09/26 12:05:13;;;;;;;6.63;3.30;;;;;;;23.44;41.26;99761.47;125745;1099;104214;-79
2022/09/26 12:08:19;;;;;;;7.13;3.07;;;;;;;23.49;41.16;99777.41;125709;1099;104264;-78
2022/09/26 12:11:04;;;;;;;5.33;3.03;;;;;;;23.51;40.87;99775.55;125691;1099;104181;-76
2022/09/26 12:13:44;;;;;;;9.73;3.30;;;;;;;23.51;40.82;99780.91;125763;1099;103219;-77
2022/09/26 12:16:23;;;;;;;4.37;2.77;;;;;;;23.48;40.92;99775.64;125689;1099;104197;-76
2022/09/26 12:19:14;;;;;;;6.40;2.90;;;;;;;23.45;40.40;99773.05;124780;1099;102053;-77
2022/09/26 12:25:14;;;;;;;7.33;3.07;;;;;;;23.40;40.63;99765.15;125566;1098;102753;-76